createdAt,value
2019-05-22T00:01:17.023Z,90.60
2019-05-22T00:03:57.542Z,90.93
2019-05-22T00:06:28.061Z,91.22
2019-05-22T00:08:54.318Z,91.43
2019-05-22T00:11:29.382Z,91.45
2019-05-22T00:13:55.352Z,91.19
2019-05-22T00:16:22.194Z,91.03
2019-05-22T00:18:50.668Z,90.91
2019-05-22T00:21:16.622Z,90.85
2019-05-22T00:23:44.244Z,90.83
2019-05-22T00:26:11.202Z,90.70
2019-05-22T00:28:38.653Z,90.68
2019-05-22T00:31:06.253Z,90.52
2019-05-22T00:33:31.822Z,90.26
2019-05-22T00:35:59.785Z,89.80
2019-05-22T00:38:25.360Z,89.14
2019-05-22T00:40:58.965Z,89.79
2019-05-22T00:43:38.405Z,90.30
2019-05-22T00:46:05.303Z,90.62
2019-05-22T00:48:32.171Z,90.84
2019-05-22T00:51:19.730Z,91.23
2019-05-22T00:53:58.933Z,91.46
2019-05-22T00:56:39.519Z,91.59
2019-05-22T00:59:11.712Z,90.88
2019-05-22T01:01:44.859Z,90.99
2019-05-22T01:04:11.558Z,91.22
2019-05-22T01:06:38.937Z,90.29
2019-05-22T01:09:09.206Z,89.39
2019-05-22T01:11:36.892Z,88.84
2019-05-22T01:14:05.224Z,89.46
2019-05-22T01:16:32.946Z,90.22
2019-05-22T01:19:00.066Z,90.34
2019-05-22T01:21:26.738Z,90.07
2019-05-22T01:23:53.622Z,89.50
2019-05-22T01:26:21.249Z,88.71
2019-05-22T01:28:48.568Z,88.35
2019-05-22T01:31:22.670Z,88.99
2019-05-22T01:34:05.803Z,88.87
2019-05-22T01:36:47.227Z,88.34
2019-05-22T01:39:55.085Z,88.26
2019-05-22T01:42:28.308Z,88.19
2019-05-22T01:45:05.000Z,87.59
2019-05-22T01:47:48.708Z,88.50
2019-05-22T01:50:24.351Z,88.00
2019-05-22T01:52:51.899Z,88.14
2019-05-22T01:55:20.785Z,88.33
2019-05-22T01:57:54.025Z,87.84
2019-05-22T02:00:20.618Z,87.26
2019-05-22T02:02:47.366Z,87.48
2019-05-22T02:05:14.622Z,88.13
2019-05-22T02:07:41.997Z,87.63
2019-05-22T02:10:08.883Z,87.14
2019-05-22T02:12:53.087Z,87.22
2019-05-22T02:15:19.697Z,87.08
2019-05-22T02:17:47.446Z,87.25
2019-05-22T02:20:14.142Z,87.61
2019-05-22T02:22:40.738Z,86.98
2019-05-22T02:25:08.398Z,87.00
2019-05-22T02:27:34.298Z,86.46
2019-05-22T02:30:02.324Z,85.74
2019-05-22T02:32:29.459Z,85.39
2019-05-22T02:34:59.317Z,85.05
2019-05-22T02:37:25.432Z,84.51
2019-05-22T02:39:51.984Z,84.91
2019-05-22T02:42:26.693Z,84.89
2019-05-22T02:44:52.817Z,84.16
2019-05-22T02:47:21.571Z,84.22
2019-05-22T02:49:48.803Z,83.58
2019-05-22T02:52:16.764Z,83.85
2019-05-22T02:54:44.308Z,83.72
2019-05-22T02:57:11.808Z,82.55
2019-05-22T02:59:37.428Z,82.87
2019-05-22T03:02:04.761Z,82.66
2019-05-22T03:04:57.632Z,82.16
2019-05-22T03:07:24.777Z,81.43
2019-05-22T03:09:50.775Z,81.41
2019-05-22T03:12:17.038Z,82.09
2019-05-22T03:14:43.503Z,81.53
2019-05-22T03:17:30.818Z,81.49
2019-05-22T03:20:00.024Z,81.28
2019-05-22T03:22:30.808Z,81.42
2019-05-22T03:25:00.184Z,81.09
2019-05-22T03:27:42.610Z,82.12
2019-05-22T03:30:15.005Z,82.57
2019-05-22T03:32:43.870Z,82.90
2019-05-22T03:35:08.584Z,82.43
2019-05-22T03:37:34.430Z,82.35
2019-05-22T03:39:59.947Z,82.48
2019-05-22T03:42:26.008Z,82.54
2019-05-22T03:44:53.888Z,83.30
2019-05-22T03:47:21.049Z,82.61
2019-05-22T03:49:48.473Z,81.80
2019-05-22T03:52:15.180Z,80.81
2019-05-22T03:54:42.035Z,80.84
2019-05-22T03:57:07.715Z,80.12
2019-05-22T03:59:33.517Z,80.72
2019-05-22T04:02:00.489Z,80.51
2019-05-22T04:04:40.479Z,80.44
2019-05-22T04:07:08.558Z,79.97
2019-05-22T04:09:34.956Z,79.88
2019-05-22T04:12:02.159Z,78.88
2019-05-22T04:14:37.821Z,79.34
2019-05-22T04:17:05.276Z,79.54
2019-05-22T04:19:47.438Z,78.27
2019-05-22T04:21:58.221Z,79.54
2019-05-22T04:24:24.080Z,78.97
2019-05-22T04:26:51.182Z,78.95
2019-05-22T04:29:16.924Z,78.65
2019-05-22T04:31:58.321Z,77.93
2019-05-22T04:34:23.950Z,77.97
2019-05-22T04:36:51.594Z,77.47
2019-05-22T04:39:24.473Z,77.37
2019-05-22T04:41:50.088Z,76.90
2019-05-22T04:44:16.313Z,77.53
2019-05-22T04:46:43.714Z,77.63
2019-05-22T04:49:09.980Z,76.22
2019-05-22T04:51:36.443Z,77.66
2019-05-22T04:54:02.408Z,77.29
2019-05-22T04:56:29.641Z,77.26
2019-05-22T04:58:56.014Z,77.16
2019-05-22T05:01:23.168Z,77.65
2019-05-22T05:03:49.165Z,77.78
2019-05-22T05:06:26.604Z,77.21
2019-05-22T05:08:52.406Z,76.72
2019-05-22T05:11:18.550Z,78.04
2019-05-22T05:13:44.059Z,77.66
2019-05-22T05:16:09.690Z,77.03
2019-05-22T05:18:35.979Z,77.43
2019-05-22T05:21:01.994Z,77.02
2019-05-22T05:23:28.296Z,76.64
2019-05-22T05:25:53.775Z,76.27
2019-05-22T05:28:20.668Z,76.75
2019-05-22T05:30:46.323Z,76.61
2019-05-22T05:33:11.955Z,76.78
2019-05-22T05:35:42.404Z,75.21
2019-05-22T05:38:08.936Z,76.45
2019-05-22T05:40:42.497Z,77.21
2019-05-22T05:43:10.770Z,76.21
2019-05-22T05:45:46.408Z,76.07
2019-05-22T05:48:17.003Z,76.20
2019-05-22T05:51:02.301Z,74.48
2019-05-22T05:53:29.429Z,76.35
2019-05-22T05:56:31.981Z,76.07
2019-05-22T05:58:59.548Z,76.85
2019-05-22T06:01:30.599Z,76.06
2019-05-22T06:03:58.943Z,75.19
2019-05-22T06:07:19.217Z,75.97
2019-05-22T06:09:47.204Z,74.58
2019-05-22T06:12:15.961Z,76.03
2019-05-22T06:14:43.263Z,74.10
2019-05-22T06:18:26.988Z,74.32
2019-05-22T06:21:03.899Z,73.30
2019-05-22T06:24:23.441Z,73.80
2019-05-22T06:27:18.980Z,73.48
2019-05-22T06:29:57.267Z,74.16
2019-05-22T06:33:08.528Z,73.04
2019-05-22T06:35:37.694Z,73.10
2019-05-22T06:38:48.677Z,74.71
2019-05-22T06:41:14.510Z,74.13
2019-05-22T06:44:32.800Z,73.29
2019-05-22T06:47:00.425Z,72.95
2019-05-22T06:49:44.305Z,73.83
2019-05-22T06:52:10.693Z,73.64
2019-05-22T06:54:36.454Z,73.52
2019-05-22T06:57:02.142Z,73.67
2019-05-22T06:59:27.625Z,73.55
2019-05-22T07:02:02.021Z,73.97
2019-05-22T07:04:29.269Z,73.23
2019-05-22T07:06:55.815Z,72.35
2019-05-22T07:09:23.016Z,73.68
2019-05-22T07:11:49.081Z,72.04
2019-05-22T07:14:15.854Z,72.87
2019-05-22T07:16:59.209Z,72.93
2019-05-22T07:19:27.322Z,73.26
2019-05-22T07:21:53.344Z,72.42
2019-05-22T07:24:20.003Z,71.52
2019-05-22T07:26:46.832Z,73.09
2019-05-22T07:29:13.568Z,73.34
2019-05-22T07:31:39.824Z,71.87
2019-05-22T07:34:05.833Z,72.76
2019-05-22T07:36:34.101Z,72.98
2019-05-22T07:38:59.633Z,72.64
2019-05-22T07:41:25.244Z,72.21
2019-05-22T07:43:50.725Z,71.35
2019-05-22T07:46:16.758Z,71.20
2019-05-22T07:48:43.578Z,72.54
2019-05-22T07:51:10.235Z,71.63
2019-05-22T07:53:35.719Z,72.54
2019-05-22T07:56:05.211Z,71.35
2019-05-22T07:58:33.171Z,71.85
2019-05-22T08:01:01.893Z,72.42
2019-05-22T08:03:28.629Z,71.72
2019-05-22T08:05:57.822Z,71.32
2019-05-22T08:08:25.074Z,70.16
2019-05-22T08:10:51.308Z,71.33
2019-05-22T08:13:17.563Z,70.71
2019-05-22T08:15:43.035Z,70.60
2019-05-22T08:18:09.439Z,70.67
2019-05-22T08:20:36.760Z,70.82
2019-05-22T08:23:03.490Z,70.05
2019-05-22T08:25:29.534Z,68.06
2019-05-22T08:27:56.294Z,70.11
2019-05-22T08:30:22.116Z,69.18
2019-05-22T08:32:47.869Z,68.09
2019-05-22T08:35:14.022Z,69.06
2019-05-22T08:37:40.867Z,69.13
2019-05-22T08:40:07.928Z,70.36
2019-05-22T08:42:35.617Z,68.74
2019-05-22T08:45:01.660Z,69.39
2019-05-22T08:47:27.288Z,67.16
2019-05-22T08:49:53.225Z,68.19
2019-05-22T08:52:23.477Z,66.17
2019-05-22T08:54:49.868Z,65.54
2019-05-22T08:57:15.798Z,65.90
2019-05-22T08:59:41.285Z,66.21
2019-05-22T09:02:08.701Z,65.50
2019-05-22T09:04:34.093Z,66.31
2019-05-22T09:06:59.602Z,65.71
2019-05-22T09:09:26.422Z,64.91
2019-05-22T09:11:51.989Z,66.04
2019-05-22T09:14:17.455Z,65.47
2019-05-22T09:16:43.962Z,65.40
2019-05-22T09:19:09.857Z,65.49
2019-05-22T09:21:35.471Z,66.26
2019-05-22T09:24:03.188Z,62.79
2019-05-22T09:26:29.684Z,62.66
2019-05-22T09:28:55.345Z,63.30
2019-05-22T09:31:21.189Z,64.26
2019-05-22T09:33:46.828Z,63.41
2019-05-22T09:36:13.187Z,63.44
2019-05-22T09:38:38.732Z,63.68
2019-05-22T09:41:05.508Z,63.81
2019-05-22T09:43:30.946Z,63.10
2019-05-22T09:45:56.415Z,62.66
2019-05-22T09:48:21.871Z,63.15
2019-05-22T09:50:47.492Z,62.05
2019-05-22T09:53:13.665Z,63.43
2019-05-22T09:55:39.552Z,62.59
2019-05-22T09:58:05.796Z,60.87
2019-05-22T10:00:32.953Z,62.56
2019-05-22T10:02:58.670Z,60.88
2019-05-22T10:05:24.070Z,62.21
2019-05-22T10:08:00.312Z,64.19
2019-05-22T10:10:18.330Z,61.14
2019-05-22T10:12:43.908Z,62.92
2019-05-22T10:15:11.196Z,62.17
2019-05-22T10:17:38.869Z,61.64
2019-05-22T10:20:05.593Z,60.61
2019-05-22T10:22:34.354Z,60.07
2019-05-22T10:25:15.094Z,62.43
2019-05-22T10:27:28.137Z,61.24
2019-05-22T10:29:54.813Z,60.54
2019-05-22T10:32:20.717Z,59.48
2019-05-22T10:34:46.642Z,58.20
2019-05-22T10:37:12.986Z,58.62
2019-05-22T10:39:39.772Z,61.18
2019-05-22T10:42:05.677Z,60.54
2019-05-22T10:44:31.903Z,59.73
2019-05-22T10:46:57.534Z,59.61
2019-05-22T10:49:23.075Z,61.00
2019-05-22T10:51:48.887Z,59.75
2019-05-22T10:54:14.626Z,59.22
2019-05-22T10:56:40.121Z,58.80
2019-05-22T10:59:07.103Z,59.42
2019-05-22T11:01:37.270Z,61.12
2019-05-22T11:04:01.144Z,60.55
2019-05-22T11:06:27.222Z,57.92
2019-05-22T11:08:52.891Z,59.03
2019-05-22T11:11:18.543Z,59.17
2019-05-22T11:13:59.806Z,59.61
2019-05-22T11:16:13.245Z,58.89
2019-05-22T11:18:38.982Z,58.06
2019-05-22T11:21:04.856Z,56.84
2019-05-22T11:23:30.322Z,57.69
2019-05-22T11:25:57.981Z,57.01
2019-05-22T11:28:24.467Z,56.11
2019-05-22T11:30:49.997Z,55.58
2019-05-22T11:33:15.642Z,57.73
2019-05-22T11:35:41.799Z,55.40
2019-05-22T11:38:07.360Z,55.18
2019-05-22T11:40:33.676Z,55.77
2019-05-22T11:42:59.200Z,56.39
2019-05-22T11:45:25.384Z,56.17
2019-05-22T11:47:50.993Z,57.12
2019-05-22T11:50:18.061Z,55.87
2019-05-22T11:52:43.964Z,55.00
2019-05-22T11:55:11.062Z,55.86
2019-05-22T11:57:40.275Z,56.25
2019-05-22T12:00:09.283Z,55.43
2019-05-22T12:02:34.676Z,55.72
2019-05-22T12:05:00.243Z,52.94
2019-05-22T12:07:25.750Z,53.96
2019-05-22T12:09:51.269Z,53.64
2019-05-22T12:12:23.577Z,53.13
2019-05-22T12:14:49.299Z,52.54
2019-05-22T12:17:15.303Z,56.65
2019-05-22T12:19:41.063Z,54.10
2019-05-22T12:22:07.641Z,50.92
2019-05-22T12:24:37.188Z,51.36
2019-05-22T12:27:00.969Z,52.67
2019-05-22T12:29:27.142Z,53.84
2019-05-22T12:31:53.478Z,53.13
2019-05-22T12:34:19.711Z,54.95
2019-05-22T12:36:45.995Z,53.66
2019-05-22T12:39:16.633Z,54.43
2019-05-22T12:41:43.845Z,53.18
2019-05-22T12:44:10.039Z,53.83
2019-05-22T12:46:36.590Z,53.54
2019-05-22T12:49:09.048Z,53.18
2019-05-22T12:51:34.707Z,54.78
2019-05-22T12:54:00.403Z,54.12
2019-05-22T12:56:26.310Z,50.92
2019-05-22T12:58:53.887Z,53.08
2019-05-22T13:01:21.001Z,50.38
2019-05-22T13:03:48.757Z,50.62
2019-05-22T13:06:14.733Z,52.64
2019-05-22T13:08:41.078Z,51.80
2019-05-22T13:11:07.802Z,51.03
2019-05-22T13:13:33.554Z,50.49
2019-05-22T13:16:02.093Z,51.86
2019-05-22T13:18:30.262Z,49.84
2019-05-22T13:20:57.432Z,50.74
2019-05-22T13:23:26.788Z,50.84
2019-05-22T13:25:54.948Z,50.45
2019-05-22T13:28:21.354Z,51.37
2019-05-22T13:30:53.624Z,52.21
2019-05-22T13:33:24.744Z,51.37
2019-05-22T13:35:51.986Z,51.04
2019-05-22T13:38:19.524Z,51.72
2019-05-22T13:40:49.971Z,49.30
2019-05-22T13:43:16.435Z,48.33
2019-05-22T13:45:42.861Z,49.74
2019-05-22T13:48:09.117Z,49.54
2019-05-22T13:50:34.812Z,49.21
2019-05-22T13:53:03.235Z,49.59
2019-05-22T13:55:29.436Z,49.16
2019-05-22T13:57:55.785Z,49.69
2019-05-22T14:00:25.451Z,47.82
2019-05-22T14:02:51.524Z,48.85
2019-05-22T14:05:18.461Z,48.41
2019-05-22T14:07:44.030Z,47.65
2019-05-22T14:10:14.009Z,47.38
2019-05-22T14:12:42.198Z,47.19
2019-05-22T14:15:08.011Z,46.45
2019-05-22T14:17:34.020Z,45.96
2019-05-22T14:20:00.264Z,46.93
2019-05-22T14:22:26.063Z,46.99
2019-05-22T14:24:51.861Z,47.62
2019-05-22T14:27:17.444Z,47.70
2019-05-22T14:29:43.653Z,46.84
2019-05-22T14:32:13.421Z,47.38
2019-05-22T14:34:38.965Z,48.07
2019-05-22T14:37:05.281Z,46.96
2019-05-22T14:39:32.742Z,48.60
2019-05-22T14:41:59.073Z,48.45
2019-05-22T14:44:25.002Z,48.20
2019-05-22T14:46:52.164Z,48.32
2019-05-22T14:49:20.821Z,48.40
2019-05-22T14:51:45.958Z,49.49
2019-05-22T14:54:12.458Z,49.93
2019-05-22T14:56:39.193Z,49.09
2019-05-22T14:59:05.395Z,50.06
2019-05-22T15:01:31.149Z,49.90
2019-05-22T15:03:58.557Z,48.76
2019-05-22T15:06:24.148Z,49.67
2019-05-22T15:08:49.978Z,48.42
2019-05-22T15:11:16.925Z,48.85
2019-05-22T15:13:42.913Z,49.51
2019-05-22T15:16:18.663Z,51.15
2019-05-22T15:18:44.608Z,49.26
2019-05-22T15:21:11.613Z,49.25
2019-05-22T15:23:50.100Z,50.64
2019-05-22T15:26:20.138Z,49.94
2019-05-22T15:28:46.339Z,49.10
2019-05-22T15:31:14.088Z,47.96
2019-05-22T15:33:41.252Z,47.40
2019-05-22T15:36:10.852Z,48.40
2019-05-22T15:38:41.073Z,47.37
2019-05-22T15:41:08.509Z,48.07
2019-05-22T15:43:34.661Z,47.84
2019-05-22T15:46:03.632Z,47.07
2019-05-22T15:48:34.754Z,48.17
2019-05-22T15:51:10.699Z,47.32
2019-05-22T15:53:39.854Z,47.32
2019-05-22T15:57:00.016Z,47.47
2019-05-22T15:59:28.937Z,47.95
2019-05-22T16:01:55.230Z,48.17
2019-05-22T16:04:24.402Z,48.39
2019-05-22T16:06:51.752Z,48.34
2019-05-22T16:09:20.495Z,49.23
2019-05-22T16:11:53.084Z,49.06
2019-05-22T16:14:21.139Z,48.01
2019-05-22T16:16:51.373Z,48.57
2019-05-22T16:19:17.789Z,50.42
2019-05-22T16:21:48.540Z,49.80
2019-05-22T16:24:16.945Z,48.33
2019-05-22T16:26:44.010Z,48.36
2019-05-22T16:29:10.306Z,49.09
2019-05-22T16:31:39.706Z,48.94
2019-05-22T16:34:06.979Z,48.73
2019-05-22T16:36:33.986Z,49.02
2019-05-22T16:39:00.953Z,50.40
2019-05-22T16:41:29.122Z,50.19
2019-05-22T16:43:56.498Z,51.37
2019-05-22T16:46:24.368Z,48.81
2019-05-22T16:48:51.542Z,48.92
2019-05-22T16:51:18.644Z,49.19
2019-05-22T16:53:50.942Z,47.53
2019-05-22T16:56:17.369Z,49.30
2019-05-22T16:58:43.859Z,48.62
2019-05-22T17:01:11.280Z,49.22
2019-05-22T17:03:38.234Z,48.50
2019-05-22T17:06:04.747Z,48.24
2019-05-22T17:08:31.046Z,50.92
2019-05-22T17:10:58.634Z,47.20
2019-05-22T17:13:25.730Z,48.66
2019-05-22T17:15:54.024Z,47.46
2019-05-22T17:18:21.309Z,47.45
2019-05-22T17:20:47.902Z,45.76
2019-05-22T17:23:14.416Z,45.77
2019-05-22T17:25:40.386Z,45.78
2019-05-22T17:28:08.649Z,45.84
2019-05-22T17:30:37.141Z,45.32
2019-05-22T17:33:05.389Z,45.61
2019-05-22T17:35:32.298Z,47.14
2019-05-22T17:37:58.526Z,45.21
2019-05-22T17:40:25.460Z,45.46
2019-05-22T17:42:53.357Z,45.42
2019-05-22T17:45:22.877Z,45.65
2019-05-22T17:47:54.714Z,47.31
2019-05-22T17:50:26.777Z,47.10
2019-05-22T17:52:51.445Z,47.47
2019-05-22T17:55:20.255Z,48.23
2019-05-22T17:57:46.972Z,47.31
2019-05-22T18:00:20.340Z,48.96
2019-05-22T18:02:45.950Z,47.22
2019-05-22T18:05:12.191Z,47.80
2019-05-22T18:07:38.818Z,48.55
2019-05-22T18:10:08.564Z,50.29
2019-05-22T18:12:34.848Z,52.67
2019-05-22T18:15:01.108Z,50.57
2019-05-22T18:17:28.355Z,48.85
2019-05-22T18:19:56.703Z,50.54
2019-05-22T18:22:22.517Z,51.78
2019-05-22T18:24:48.075Z,51.36
2019-05-22T18:27:31.737Z,51.20
2019-05-22T18:29:57.873Z,52.17
2019-05-22T18:32:23.645Z,51.71
2019-05-22T18:34:49.109Z,52.22
2019-05-22T18:37:14.585Z,51.71
2019-05-22T18:39:40.188Z,50.89
2019-05-22T18:42:05.690Z,51.92
2019-05-22T18:44:31.187Z,52.61
2019-05-22T18:46:56.950Z,50.46
2019-05-22T18:49:22.309Z,50.11
2019-05-22T18:51:48.147Z,52.04
2019-05-22T18:54:13.623Z,54.99
2019-05-22T18:56:39.074Z,51.61
2019-05-22T18:59:04.921Z,50.98
2019-05-22T19:01:30.628Z,55.22
2019-05-22T19:03:56.068Z,55.43
2019-05-22T19:06:30.110Z,55.61
2019-05-22T19:08:50.167Z,56.61
2019-05-22T19:11:15.743Z,56.04
2019-05-22T19:13:41.288Z,55.37
2019-05-22T19:16:07.500Z,56.43
2019-05-22T19:18:32.937Z,57.48
2019-05-22T19:20:58.806Z,57.04
2019-05-22T19:23:24.364Z,58.47
2019-05-22T19:25:50.107Z,57.32
2019-05-22T19:28:15.657Z,58.40
2019-05-22T19:30:41.773Z,55.91
2019-05-22T19:33:07.401Z,53.99
2019-05-22T19:35:32.866Z,51.95
2019-05-22T19:38:00.738Z,53.73
2019-05-22T19:40:26.273Z,54.33
2019-05-22T19:42:52.159Z,53.37
2019-05-22T19:45:19.201Z,53.38
2019-05-22T19:47:52.885Z,53.14
2019-05-22T19:50:23.666Z,53.84
2019-05-22T19:52:48.727Z,53.36
2019-05-22T19:55:17.271Z,52.18
2019-05-22T19:57:43.418Z,54.23
2019-05-22T20:00:10.013Z,53.61
2019-05-22T20:02:36.538Z,54.88
2019-05-22T20:05:02.157Z,52.76
2019-05-22T20:07:27.538Z,53.58
2019-05-22T20:09:54.519Z,56.54
2019-05-22T20:12:20.014Z,54.69
2019-05-22T20:14:46.561Z,55.01
2019-05-22T20:17:12.615Z,56.24
2019-05-22T20:19:38.166Z,56.83
2019-05-22T20:22:04.342Z,57.73
2019-05-22T20:24:29.969Z,58.02
2019-05-22T20:26:55.900Z,58.45
2019-05-22T20:29:22.117Z,59.11
2019-05-22T20:31:47.657Z,59.19
2019-05-22T20:34:13.701Z,59.40
2019-05-22T20:36:39.755Z,60.36
2019-05-22T20:39:09.427Z,60.66
2019-05-22T20:41:58.026Z,61.56
2019-05-22T20:44:24.037Z,61.27
2019-05-22T20:46:51.318Z,62.12
2019-05-22T20:49:17.342Z,62.06
2019-05-22T20:51:43.980Z,62.51
2019-05-22T20:54:11.429Z,63.00
2019-05-22T20:56:39.939Z,62.98
2019-05-22T20:59:06.588Z,63.22
2019-05-22T21:01:33.223Z,59.41
2019-05-22T21:04:03.970Z,61.41
2019-05-22T21:06:32.634Z,62.30
2019-05-22T21:09:00.840Z,62.50
2019-05-22T21:11:29.895Z,62.77
2019-05-22T21:13:55.505Z,61.92
2019-05-22T21:16:21.022Z,62.19
2019-05-22T21:18:51.996Z,60.14
2019-05-22T21:21:19.301Z,61.26
2019-05-22T21:23:44.943Z,61.05
2019-05-22T21:26:11.390Z,58.88
2019-05-22T21:28:37.612Z,60.20
2019-05-22T21:31:14.477Z,60.33
2019-05-22T21:33:40.370Z,60.68
2019-05-22T21:36:08.517Z,60.02
2019-05-22T21:38:34.257Z,61.57
2019-05-22T21:41:00.312Z,62.09
2019-05-22T21:43:25.896Z,63.43
2019-05-22T21:45:51.783Z,62.80
2019-05-22T21:48:17.534Z,63.69
2019-05-22T21:50:43.247Z,63.32
2019-05-22T21:53:12.927Z,61.34
2019-05-22T21:55:39.567Z,62.87
2019-05-22T21:58:06.000Z,62.92
2019-05-22T22:00:53.856Z,63.39
2019-05-22T22:03:24.271Z,63.75
2019-05-22T22:05:50.275Z,64.58
2019-05-22T22:08:16.220Z,64.94
2019-05-22T22:10:43.660Z,65.26
2019-05-22T22:13:09.212Z,65.42
2019-05-22T22:15:41.043Z,65.56
2019-05-22T22:18:07.928Z,65.28
2019-05-22T22:20:33.741Z,65.30
2019-05-22T22:22:59.893Z,65.22
2019-05-22T22:25:26.173Z,63.65
2019-05-22T22:27:54.598Z,64.33
2019-05-22T22:30:30.491Z,65.88
2019-05-22T22:32:59.857Z,64.03
2019-05-22T22:35:25.925Z,64.09
2019-05-22T22:37:51.803Z,64.23
2019-05-22T22:40:22.305Z,65.25
2019-05-22T22:42:50.157Z,65.87
2019-05-22T22:45:24.167Z,65.00
2019-05-22T22:47:51.786Z,65.86
2019-05-22T22:50:19.429Z,65.98
2019-05-22T22:52:47.028Z,64.84
2019-05-22T22:55:17.469Z,64.72
2019-05-22T22:57:43.097Z,65.64
2019-05-22T23:00:12.314Z,66.33
2019-05-22T23:02:40.182Z,65.17
2019-05-22T23:05:07.698Z,65.84
2019-05-22T23:07:36.044Z,66.84
2019-05-22T23:10:08.746Z,65.93
2019-05-22T23:12:37.855Z,65.85
2019-05-22T23:15:05.028Z,66.96
2019-05-22T23:17:32.583Z,67.36
2019-05-22T23:19:55.688Z,67.76
2019-05-22T23:22:21.893Z,67.75
2019-05-22T23:24:52.050Z,68.22
2019-05-22T23:27:19.493Z,68.29
2019-05-22T23:29:46.761Z,68.69
2019-05-22T23:32:14.977Z,69.04
2019-05-22T23:34:40.437Z,68.97
2019-05-22T23:37:07.560Z,69.49
2019-05-22T23:39:33.746Z,69.46
2019-05-22T23:42:05.137Z,69.75
2019-05-22T23:44:34.322Z,69.80
2019-05-22T23:47:00.350Z,70.25
2019-05-22T23:49:26.203Z,69.99
2019-05-22T23:51:53.150Z,70.02
2019-05-22T23:54:20.896Z,70.77
2019-05-22T23:56:49.292Z,70.60
2019-05-22T23:59:16.730Z,70.15
